Time;durP1;ratioP1;P1;durP2;ratioP2;P2;SDS_P1;SDS_P2;PMS_P1;PMS_P2;Temp;Humidity;BMP_temperature;BMP_pressure;BME280_temperature;BME280_humidity;BME280_pressure;Samples;Min_cycle;Max_cycle;Signal;HPM_P1;HPM_P2
2021/04/08 00:04:48;;;;;;;4.00;1.30;;;;;;;;;;10400958;28;20999;-75
2021/04/08 00:09:50;;;;;;;3.13;1.30;;;;;;;;;;10412081;28;20354;-75
2021/04/08 00:14:53;;;;;;;4.57;1.50;;;;;;;;;;10412478;28;20820;-75
2021/04/08 00:19:55;;;;;;;3.80;1.50;;;;;;;;;;10415939;28;20306;-74
2021/04/08 00:24:57;;;;;;;4.27;1.47;;;;;;;;;;10410837;28;20222;-75
2021/04/08 00:29:59;;;;;;;3.07;1.20;;;;;;;;;;10408327;28;20226;-75
2021/04/08 00:35:02;;;;;;;3.47;1.23;;;;;;;;;;10406476;28;20326;-75
2021/04/08 00:40:06;;;;;;;5.70;1.50;;;;;;;;;;10412867;28;20212;-75
2021/04/08 00:45:10;;;;;;;4.27;1.20;;;;;;;;;;10407847;28;20227;-75
2021/04/08 00:50:13;;;;;;;2.57;1.40;;;;;;;;;;10417156;28;20821;-74
2021/04/08 00:55:15;;;;;;;5.43;1.30;;;;;;;;;;10410409;28;20227;-74
2021/04/08 01:00:18;;;;;;;4.50;1.53;;;;;;;;;;10409415;28;20678;-74
2021/04/08 01:05:20;;;;;;;4.70;1.43;;;;;;;;;;10414508;28;20259;-74
2021/04/08 01:10:23;;;;;;;6.20;1.77;;;;;;;;;;10404737;28;20224;-74
2021/04/08 01:15:26;;;;;;;5.93;1.73;;;;;;;;;;10403186;28;21174;-75
2021/04/08 01:20:44;;;;;;;6.40;1.70;;;;;;;;;;10410599;28;20295;-75
2021/04/08 01:26:03;;;;;;;3.87;1.50;;;;;;;;;;10406317;28;20605;-75
2021/04/08 01:31:07;;;;;;;7.53;1.63;;;;;;;;;;10410203;28;20243;-75
2021/04/08 01:36:09;;;;;;;5.37;1.83;;;;;;;;;;10414016;28;20277;-75
2021/04/08 01:41:12;;;;;;;4.83;1.80;;;;;;;;;;10401668;28;20872;-75
2021/04/08 06:32:23;;;;;;;5.37;2.27;;;;;;;;;;8633702;26;20237;-76
2021/04/08 06:37:51;;;;;;;;;;;;;;;;;;;;;
2021/04/08 15:29:50;;;;;;;5.83;4.17;;;;;;;;;;10379849;28;20215;-77
2021/04/08 15:34:52;;;;;;;7.73;4.30;;;;;;;;;;10390928;28;20265;-77
2021/04/08 15:39:54;;;;;;;9.20;4.70;;;;;;;;;;10390890;28;20274;-77
2021/04/08 15:44:57;;;;;;;6.20;4.70;;;;;;;;;;10386092;28;20219;-76
2021/04/08 15:49:59;;;;;;;5.00;4.47;;;;;;;;;;10392539;28;20278;-76
2021/04/08 15:55:01;;;;;;;8.63;5.47;;;;;;;;;;10389187;28;20216;-76
2021/04/08 16:00:05;;;;;;;8.37;6.00;;;;;;;;;;10392014;28;20317;-76
2021/04/08 16:05:07;;;;;;;7.00;5.33;;;;;;;;;;10392552;28;20232;-77
2021/04/08 16:26:21;;;;;;;10.87;6.50;;;;;;;;;;8762875;26;20253;-77
2021/04/08 16:31:31;;;;;;;11.17;6.77;;;;;;;;;;10427220;28;20221;-76
2021/04/08 16:42:12;;;;;;;12.23;7.27;;;;;;;;;;10443850;28;20215;-78
2021/04/08 16:47:28;;;;;;;9.47;7.00;;;;;;;;;;10451310;28;20211;-78
2021/04/08 16:52:31;;;;;;;9.70;6.60;;;;;;;;;;10453993;28;20218;-76
2021/04/08 16:57:36;;;;;;;11.27;6.43;;;;;;;;;;10453613;28;20258;-79
2021/04/08 19:13:35;;;;;;;13.63;7.80;;;;;;;;;;10297341;28;20590;-79
2021/04/08 19:18:39;;;;;;;13.03;7.93;;;;;;;;;;10283648;28;20360;-81
2021/04/08 19:23:41;;;;;;;10.03;6.93;;;;;;;;;;10286852;28;20220;-80
2021/04/08 19:28:44;;;;;;;11.20;7.60;;;;;;;;;;10278045;28;20214;-80
2021/04/08 19:33:45;;;;;;;13.73;7.67;;;;;;;;;;10280790;28;20596;-82
2021/04/08 19:38:47;;;;;;;11.33;7.63;;;;;;;;;;10275893;28;20254;-81
2021/04/08 19:43:50;;;;;;;12.70;8.00;;;;;;;;;;10284400;28;20258;-79
2021/04/08 19:48:52;;;;;;;10.80;7.67;;;;;;;;;;10284890;28;20221;-79
2021/04/08 19:53:53;;;;;;;11.97;8.17;;;;;;;;;;10286570;28;20259;-79
2021/04/08 19:58:56;;;;;;;11.30;8.10;;;;;;;;;;10282404;28;21092;-81
2021/04/08 20:03:58;;;;;;;13.40;8.13;;;;;;;;;;10286162;28;20604;-80
2021/04/08 20:09:00;;;;;;;12.93;8.40;;;;;;;;;;10286052;28;20229;-79
2021/04/08 20:14:03;;;;;;;12.10;8.33;;;;;;;;;;10282277;28;20225;-79
2021/04/08 20:19:05;;;;;;;11.73;7.80;;;;;;;;;;10287909;28;20662;-80
2021/04/08 20:24:09;;;;;;;14.23;8.97;;;;;;;;;;10295523;28;20248;-79
2021/04/08 20:29:12;;;;;;;14.80;8.87;;;;;;;;;;10291271;28;20214;-79
2021/04/08 20:34:15;;;;;;;13.87;8.93;;;;;;;;;;10296917;28;20225;-80
2021/04/08 20:39:30;;;;;;;13.63;9.80;;;;;;;;;;10293634;28;20714;-79
2021/04/08 20:44:33;;;;;;;15.90;10.33;;;;;;;;;;10290385;28;20218;-79
2021/04/08 20:49:35;;;;;;;16.07;10.07;;;;;;;;;;10289501;28;20220;-80
2021/04/08 20:54:38;;;;;;;19.03;11.23;;;;;;;;;;10293408;28;20209;-80
2021/04/08 20:59:40;;;;;;;16.07;11.10;;;;;;;;;;10296806;28;20252;-80
2021/04/08 21:04:42;;;;;;;17.63;12.30;;;;;;;;;;10293994;28;20675;-80
2021/04/08 21:09:44;;;;;;;13.97;10.87;;;;;;;;;;10298792;28;20714;-80
2021/04/08 21:14:47;;;;;;;14.63;10.97;;;;;;;;;;10292563;28;20699;-79
2021/04/08 21:19:48;;;;;;;18.60;10.20;;;;;;;;;;10297225;28;20578;-80
2021/04/08 21:24:51;;;;;;;16.17;9.63;;;;;;;;;;10295684;28;20214;-78
2021/04/08 21:29:54;;;;;;;17.70;9.80;;;;;;;;;;10297856;28;20236;-80
2021/04/08 21:34:55;;;;;;;14.17;8.60;;;;;;;;;;10291282;28;20216;-79
2021/04/08 21:39:58;;;;;;;16.20;8.73;;;;;;;;;;10295574;28;20271;-80
2021/04/08 21:45:01;;;;;;;15.97;9.90;;;;;;;;;;10286780;28;20316;-80
2021/04/08 21:50:04;;;;;;;16.70;9.63;;;;;;;;;;10293527;28;20225;-78
2021/04/08 21:55:06;;;;;;;16.37;10.87;;;;;;;;;;10295469;28;20224;-80
2021/04/08 22:00:10;;;;;;;14.87;10.17;;;;;;;;;;10290735;28;20258;-81
2021/04/08 22:05:12;;;;;;;16.97;10.80;;;;;;;;;;10293779;28;20233;-80
2021/04/08 22:10:15;;;;;;;15.50;9.83;;;;;;;;;;10290614;28;20300;-81
2021/04/08 22:15:19;;;;;;;15.83;9.87;;;;;;;;;;10290368;28;20214;-80
2021/04/08 22:20:21;;;;;;;17.03;10.13;;;;;;;;;;10291157;28;20237;-80
2021/04/08 22:25:25;;;;;;;17.53;9.40;;;;;;;;;;10291216;28;20254;-80
2021/04/08 22:30:29;;;;;;;15.27;9.40;;;;;;;;;;10290807;28;20244;-79
2021/04/08 22:35:31;;;;;;;13.50;9.30;;;;;;;;;;10292810;28;20268;-81
2021/04/08 22:40:33;;;;;;;17.17;9.90;;;;;;;;;;10293892;28;20241;-80
2021/04/08 22:45:36;;;;;;;15.20;9.50;;;;;;;;;;10288103;28;20221;-81
2021/04/08 22:50:38;;;;;;;15.40;9.53;;;;;;;;;;10294402;28;20217;-81
2021/04/08 22:55:42;;;;;;;19.40;10.30;;;;;;;;;;10288702;28;20217;-81
2021/04/08 23:00:46;;;;;;;17.33;10.33;;;;;;;;;;10288717;28;20245;-80
2021/04/08 23:05:48;;;;;;;16.77;10.63;;;;;;;;;;10293402;28;20237;-80
2021/04/08 23:10:50;;;;;;;17.03;10.00;;;;;;;;;;10290773;28;20598;-81
2021/04/08 23:15:53;;;;;;;21.80;11.10;;;;;;;;;;10288302;28;20217;-79
2021/04/08 23:20:56;;;;;;;18.33;9.73;;;;;;;;;;10291644;28;20638;-80
2021/04/08 23:25:58;;;;;;;17.57;10.50;;;;;;;;;;10285906;28;20835;-81
2021/04/08 23:31:01;;;;;;;14.47;9.20;;;;;;;;;;10289754;28;20602;-80
2021/04/08 23:36:04;;;;;;;19.90;11.03;;;;;;;;;;10272389;28;20814;-78
2021/04/08 23:41:06;;;;;;;15.40;9.70;;;;;;;;;;10284334;28;20210;-79
2021/04/08 23:52:06;;;;;;;16.37;10.10;;;;;;;;;;10288832;28;20565;-80
2021/04/08 23:57:08;;;;;;;15.83;10.23;;;;;;;;;;10287040;28;20248;-81
